createdAt,value
2023-01-08T00:01:06.092Z,9.30
2023-01-08T00:03:34.075Z,9.00
2023-01-08T00:06:03.140Z,9.10
2023-01-08T00:08:31.600Z,9.30
2023-01-08T00:10:59.245Z,9.30
2023-01-08T00:19:01.214Z,9.10
2023-01-08T00:21:29.751Z,9.10
2023-01-08T00:24:00.694Z,9.10
2023-01-08T00:26:28.416Z,9.20
2023-01-08T00:28:57.064Z,9.50
2023-01-08T00:31:26.157Z,9.30
2023-01-08T00:33:53.460Z,9.20
2023-01-08T00:41:54.922Z,9.10
2023-01-08T00:44:22.704Z,9.10
2023-01-08T00:46:49.964Z,9.10
2023-01-08T00:49:18.543Z,9.00
2023-01-08T00:51:46.580Z,9.10
2023-01-08T00:54:14.820Z,9.20
2023-01-08T00:56:42.667Z,9.30
2023-01-08T01:01:54.773Z,9.60
2023-01-08T01:04:22.437Z,9.30
2023-01-08T01:06:50.326Z,9.20
2023-01-08T01:09:17.733Z,9.40
2023-01-08T01:11:45.912Z,9.20
2023-01-08T01:14:15.025Z,9.20
2023-01-08T01:16:43.378Z,9.30
2023-01-08T01:21:51.982Z,9.20
2023-01-08T01:24:21.376Z,9.50
2023-01-08T01:26:48.898Z,9.40
2023-01-08T01:29:17.209Z,9.50
2023-01-08T01:31:44.504Z,9.60
2023-01-08T01:34:12.179Z,9.50
2023-01-08T01:36:39.652Z,9.40
2023-01-08T01:39:08.100Z,9.50
2023-01-08T01:49:45.007Z,9.20
2023-01-08T01:52:25.928Z,9.30
2023-01-08T01:54:55.613Z,9.20
2023-01-08T01:57:29.098Z,9.30
2023-01-08T02:00:02.874Z,9.40
2023-01-08T02:02:31.936Z,9.30
2023-01-08T02:05:04.245Z,9.40
2023-01-08T02:07:39.551Z,9.40
2023-01-08T02:12:52.960Z,9.40
2023-01-08T02:15:27.068Z,9.50
2023-01-08T02:17:59.499Z,9.50
2023-01-08T02:20:31.704Z,9.50
2023-01-08T02:23:22.377Z,9.80
2023-01-08T02:26:10.895Z,9.90
2023-01-08T02:28:43.762Z,10.00
2023-01-08T02:36:35.375Z,9.90
2023-01-08T02:39:14.930Z,10.10
2023-01-08T02:42:04.929Z,9.90
2023-01-08T02:44:42.282Z,9.90
2023-01-08T02:47:16.388Z,10.00
2023-01-08T02:49:48.201Z,9.90
2023-01-08T02:52:18.540Z,10.00
2023-01-08T02:58:00.165Z,10.20
2023-01-08T03:00:29.135Z,10.30
2023-01-08T03:03:04.763Z,10.30
2023-01-08T03:05:34.008Z,10.40
2023-01-08T03:08:02.791Z,10.20
2023-01-08T03:10:31.309Z,10.40
2023-01-08T03:13:04.207Z,10.40
2023-01-08T03:20:36.120Z,10.40
2023-01-08T03:23:06.739Z,10.30
2023-01-08T03:25:35.323Z,10.30
2023-01-08T03:28:08.437Z,10.40
2023-01-08T03:30:37.354Z,10.40
2023-01-08T03:33:06.928Z,10.30
2023-01-08T03:35:40.906Z,10.20
2023-01-08T03:38:14.714Z,10.30
2023-01-08T03:45:54.585Z,10.20
2023-01-08T03:48:23.368Z,10.10
2023-01-08T03:50:51.213Z,10.20
2023-01-08T03:53:18.655Z,10.10
2023-01-08T03:55:46.030Z,9.90
2023-01-08T03:58:13.567Z,9.80
2023-01-08T04:00:41.619Z,9.90
2023-01-08T04:06:15.396Z,10.10
2023-01-08T04:08:43.016Z,10.10
2023-01-08T04:11:10.776Z,9.90
2023-01-08T04:13:38.904Z,9.90
2023-01-08T04:16:07.717Z,9.80
2023-01-08T04:18:37.175Z,9.80
2023-01-08T04:21:04.912Z,9.80
2023-01-08T04:23:34.466Z,9.70
2023-01-08T04:30:42.083Z,9.60
2023-01-08T04:33:09.915Z,9.80
2023-01-08T04:35:37.681Z,9.90
2023-01-08T04:38:09.066Z,9.90
2023-01-08T04:40:37.218Z,10.00
2023-01-08T04:43:05.145Z,9.70
2023-01-08T04:45:32.332Z,9.70
2023-01-08T04:48:00.297Z,9.80
2023-01-08T04:55:29.033Z,9.70
2023-01-08T04:57:56.524Z,9.60
2023-01-08T05:00:23.932Z,9.80
2023-01-08T05:02:51.306Z,9.90
2023-01-08T05:05:20.963Z,9.90
2023-01-08T05:07:48.174Z,9.80
2023-01-08T05:10:15.982Z,10.00
2023-01-08T05:12:44.917Z,10.20
2023-01-08T05:20:23.433Z,10.00
2023-01-08T05:22:53.066Z,9.90
2023-01-08T05:25:23.897Z,10.10
2023-01-08T05:28:11.313Z,10.20
2023-01-08T05:30:45.138Z,10.10
2023-01-08T05:33:12.535Z,10.00
2023-01-08T05:35:41.622Z,10.00
2023-01-08T05:38:09.547Z,9.90
2023-01-08T05:43:17.766Z,10.00
2023-01-08T05:45:45.246Z,9.70
2023-01-08T05:48:12.392Z,9.70
2023-01-08T05:50:39.731Z,9.60
2023-01-08T05:53:08.183Z,9.70
2023-01-08T05:55:36.406Z,9.60
2023-01-08T05:58:04.211Z,9.70
2023-01-08T06:00:33.913Z,9.40
2023-01-08T06:09:04.044Z,9.60
2023-01-08T06:11:38.139Z,9.50
2023-01-08T06:14:13.344Z,9.50
2023-01-08T06:17:06.467Z,9.50
2023-01-08T06:19:46.223Z,9.60
2023-01-08T06:22:35.906Z,9.70
2023-01-08T06:25:41.416Z,9.70
2023-01-08T06:52:57.133Z,9.80
2023-01-08T06:59:56.035Z,9.40
2023-01-08T07:02:25.573Z,9.40
2023-01-08T07:04:52.866Z,9.40
2023-01-08T07:07:23.394Z,9.30
2023-01-08T07:09:50.245Z,9.20
2023-01-08T07:12:19.962Z,9.30
2023-01-08T07:14:49.653Z,9.30
2023-01-08T07:22:28.380Z,9.30
2023-01-08T07:24:55.941Z,9.40
2023-01-08T07:27:23.153Z,9.40
2023-01-08T07:29:50.154Z,9.60
2023-01-08T07:32:17.783Z,9.20
2023-01-08T07:34:46.565Z,9.30
2023-01-08T07:37:15.585Z,9.30
2023-01-08T07:45:23.070Z,9.50
2023-01-08T07:47:50.492Z,9.30
2023-01-08T07:50:17.506Z,9.40
2023-01-08T07:52:44.835Z,9.30
2023-01-08T07:55:11.993Z,9.40
2023-01-08T07:57:39.006Z,9.40
2023-01-08T08:00:14.953Z,9.40
2023-01-08T08:07:48.845Z,9.40
2023-01-08T08:10:19.780Z,9.30
2023-01-08T08:12:46.937Z,9.40
2023-01-08T08:15:15.584Z,9.40
2023-01-08T08:17:46.171Z,9.60
2023-01-08T08:20:13.546Z,9.30
2023-01-08T08:22:41.329Z,9.10
2023-01-08T08:30:13.238Z,9.40
2023-01-08T08:32:46.606Z,9.50
2023-01-08T08:35:13.894Z,9.20
2023-01-08T08:37:40.843Z,9.30
2023-01-08T08:40:11.912Z,9.40
2023-01-08T08:42:39.144Z,9.50
2023-01-08T08:45:07.734Z,9.60
2023-01-08T08:47:38.372Z,9.60
2023-01-08T08:52:45.283Z,9.40
2023-01-08T08:55:20.788Z,9.20
2023-01-08T08:57:48.783Z,9.10
2023-01-08T09:00:17.064Z,9.10
2023-01-08T09:02:44.332Z,9.00
2023-01-08T09:05:11.798Z,9.20
2023-01-08T09:07:45.278Z,9.10
2023-01-08T09:15:15.747Z,8.90
2023-01-08T09:17:43.171Z,9.20
2023-01-08T09:20:13.360Z,9.40
2023-01-08T09:22:45.583Z,9.20
2023-01-08T09:25:12.713Z,9.10
2023-01-08T09:27:39.796Z,9.10
2023-01-08T09:30:08.153Z,9.10
2023-01-08T09:35:56.045Z,9.20
2023-01-08T09:38:24.136Z,9.20
2023-01-08T09:41:03.737Z,9.20
2023-01-08T09:43:37.036Z,9.40
2023-01-08T09:46:09.497Z,9.20
2023-01-08T09:48:42.327Z,9.50
2023-01-08T09:51:17.716Z,9.40
2023-01-08T09:57:06.233Z,9.20
2023-01-08T09:59:33.947Z,9.30
2023-01-08T10:02:01.743Z,9.20
2023-01-08T10:04:30.790Z,9.20
2023-01-08T10:07:03.999Z,9.30
2023-01-08T10:09:33.422Z,9.30
2023-01-08T10:12:04.836Z,9.40
2023-01-08T10:14:37.091Z,9.30
2023-01-08T10:21:58.111Z,9.30
2023-01-08T10:24:41.536Z,9.20
2023-01-08T10:27:12.761Z,9.30
2023-01-08T10:29:43.620Z,9.40
2023-01-08T10:32:20.509Z,9.50
2023-01-08T10:34:51.830Z,9.40
2023-01-08T10:37:26.354Z,9.20
2023-01-08T10:43:10.876Z,9.40
2023-01-08T10:45:42.656Z,9.10
2023-01-08T10:48:20.870Z,9.10
2023-01-08T10:50:48.195Z,9.10
2023-01-08T10:53:34.813Z,8.90
2023-01-08T10:56:07.424Z,9.10
2023-01-08T10:58:43.688Z,9.10
2023-01-08T11:04:43.279Z,9.30
2023-01-08T11:07:21.197Z,9.30
2023-01-08T11:09:51.139Z,9.20
2023-01-08T11:12:34.796Z,9.40
2023-01-08T11:15:04.609Z,9.50
2023-01-08T11:17:34.195Z,9.50
2023-01-08T11:27:11.625Z,9.20
2023-01-08T11:29:45.144Z,9.20
2023-01-08T11:32:37.850Z,9.30
2023-01-08T11:35:13.324Z,9.40
2023-01-08T11:38:05.739Z,9.50
2023-01-08T11:40:40.390Z,9.40
2023-01-08T11:43:30.134Z,9.40
2023-01-08T11:51:35.579Z,9.10
2023-01-08T11:54:27.373Z,9.50
2023-01-08T11:57:17.966Z,9.50
2023-01-08T12:00:00.886Z,9.30
2023-01-08T12:02:48.499Z,9.50
2023-01-08T12:05:49.624Z,9.60
2023-01-08T12:14:10.278Z,9.60
2023-01-08T12:16:55.096Z,9.40
2023-01-08T12:19:37.365Z,9.10
2023-01-08T12:22:40.286Z,9.20
2023-01-08T12:25:34.024Z,9.20
2023-01-08T12:28:17.936Z,9.20
2023-01-08T12:34:47.147Z,9.30
2023-01-08T12:37:21.625Z,9.20
2023-01-08T12:39:56.191Z,9.20
2023-01-08T12:42:30.977Z,9.10
2023-01-08T12:45:02.530Z,9.30
2023-01-08T12:47:37.303Z,9.40
2023-01-08T12:50:25.686Z,9.50
2023-01-08T13:00:08.224Z,9.50
2023-01-08T13:02:48.765Z,9.50
2023-01-08T13:05:32.206Z,9.40
2023-01-08T13:08:02.576Z,9.50
2023-01-08T13:10:36.246Z,9.60
2023-01-08T13:13:06.871Z,9.50
2023-01-08T13:15:38.046Z,9.70
2023-01-08T13:18:19.568Z,9.80
2023-01-08T13:24:40.601Z,9.70
2023-01-08T13:27:28.472Z,9.80
2023-01-08T13:29:57.784Z,9.50
2023-01-08T13:33:02.170Z,9.70
2023-01-08T13:35:44.529Z,9.70
2023-01-08T13:38:30.502Z,9.60
2023-01-08T13:41:03.156Z,9.50
2023-01-08T13:48:43.317Z,9.60
2023-01-08T13:51:31.792Z,9.50
2023-01-08T13:54:19.671Z,9.60
2023-01-08T13:56:54.348Z,9.60
2023-01-08T13:59:38.057Z,9.40
2023-01-08T14:02:31.612Z,9.50
2023-01-08T14:05:06.104Z,9.60
2023-01-08T14:13:14.249Z,9.70
2023-01-08T14:15:42.017Z,9.50
2023-01-08T14:18:16.529Z,9.60
2023-01-08T14:20:49.155Z,9.40
2023-01-08T14:23:23.967Z,9.50
2023-01-08T14:25:52.328Z,9.60
2023-01-08T14:28:22.616Z,9.70
2023-01-08T14:34:11.284Z,9.70
2023-01-08T14:36:39.263Z,9.50
2023-01-08T14:39:12.466Z,9.60
2023-01-08T14:42:02.001Z,9.70
2023-01-08T14:44:38.020Z,9.90
2023-01-08T14:47:18.706Z,9.90
2023-01-08T14:49:51.823Z,9.80
2023-01-08T14:57:29.975Z,10.00
2023-01-08T15:00:01.253Z,10.00
2023-01-08T15:02:33.050Z,9.80
2023-01-08T15:05:15.629Z,9.80
2023-01-08T15:07:46.224Z,9.90
2023-01-08T15:11:00.565Z,9.90
2023-01-08T15:13:35.398Z,9.90
2023-01-08T15:21:38.351Z,9.50
2023-01-08T15:24:12.144Z,9.40
2023-01-08T15:26:43.403Z,9.60
2023-01-08T15:29:19.249Z,9.90
2023-01-08T15:31:51.162Z,10.00
2023-01-08T15:34:22.041Z,10.00
2023-01-08T15:36:50.061Z,10.10
2023-01-08T15:39:17.431Z,10.00
2023-01-08T15:44:54.754Z,10.00
2023-01-08T15:47:22.877Z,9.90
2023-01-08T15:49:50.633Z,9.90
2023-01-08T15:52:24.526Z,9.90
2023-01-08T15:54:55.314Z,9.90
2023-01-08T15:57:24.013Z,10.10
2023-01-08T15:59:53.225Z,9.80
2023-01-08T16:05:53.684Z,9.80
2023-01-08T16:08:26.713Z,9.90
2023-01-08T16:10:55.112Z,9.70
2023-01-08T16:13:28.317Z,9.70
2023-01-08T16:15:59.430Z,9.90
2023-01-08T16:18:28.665Z,9.90
2023-01-08T16:27:17.605Z,9.90
2023-01-08T16:29:54.385Z,9.40
2023-01-08T16:32:29.745Z,9.50
2023-01-08T16:34:58.125Z,9.50
2023-01-08T16:37:31.301Z,9.50
2023-01-08T16:40:10.336Z,9.50
2023-01-08T16:42:52.827Z,9.30
2023-01-08T16:48:19.045Z,9.20
2023-01-08T16:50:50.601Z,9.40
2023-01-08T16:53:31.714Z,9.50
2023-01-08T16:55:59.842Z,9.70
2023-01-08T16:58:28.914Z,9.70
2023-01-08T17:01:02.975Z,9.70
2023-01-08T17:03:38.472Z,9.40
2023-01-08T17:11:09.630Z,9.50
2023-01-08T17:13:37.590Z,9.50
2023-01-08T17:16:08.086Z,9.60
2023-01-08T17:18:38.366Z,9.70
2023-01-08T17:21:06.532Z,9.50
2023-01-08T17:23:34.270Z,9.50
2023-01-08T17:26:08.611Z,9.50
2023-01-08T17:28:40.683Z,9.50
2023-01-08T17:35:21.155Z,9.20
2023-01-08T17:37:48.667Z,9.50
2023-01-08T17:40:17.666Z,9.60
2023-01-08T17:42:45.546Z,9.50
2023-01-08T17:45:13.097Z,9.50
2023-01-08T17:47:42.863Z,9.40
2023-01-08T17:50:12.835Z,9.30
2023-01-08T17:57:47.015Z,9.20
2023-01-08T18:00:16.078Z,9.40
2023-01-08T18:02:45.328Z,9.30
2023-01-08T18:05:13.426Z,9.40
2023-01-08T18:07:41.077Z,9.50
2023-01-08T18:10:10.663Z,9.60
2023-01-08T18:12:44.055Z,9.70
2023-01-08T18:15:16.658Z,9.70
2023-01-08T18:20:21.657Z,9.60
2023-01-08T18:22:51.704Z,9.60
2023-01-08T18:25:29.239Z,9.60
2023-01-08T18:27:59.947Z,9.60
2023-01-08T18:30:32.194Z,9.60
2023-01-08T18:33:02.537Z,9.60
2023-01-08T18:35:34.175Z,9.70
2023-01-08T18:38:05.199Z,9.60
2023-01-08T18:44:54.864Z,9.60
2023-01-08T18:47:24.994Z,9.60
2023-01-08T18:49:54.700Z,9.50
2023-01-08T18:52:25.108Z,9.50
2023-01-08T18:54:56.623Z,9.60
2023-01-08T18:57:24.905Z,9.40
2023-01-08T18:59:55.025Z,9.30
2023-01-08T19:09:52.845Z,9.20
2023-01-08T19:12:20.403Z,9.30
2023-01-08T19:14:52.189Z,9.30
2023-01-08T19:17:20.215Z,9.20
2023-01-08T19:19:47.805Z,9.30
2023-01-08T19:22:24.125Z,9.30
2023-01-08T19:24:56.378Z,9.30
2023-01-08T19:27:26.615Z,9.20
2023-01-08T19:34:56.766Z,9.30
2023-01-08T19:37:27.704Z,9.20
2023-01-08T19:40:01.221Z,9.10
2023-01-08T19:42:47.518Z,9.10
2023-01-08T19:45:21.288Z,9.00
2023-01-08T19:47:49.182Z,9.10
2023-01-08T19:50:21.986Z,9.00
2023-01-08T19:55:30.444Z,9.00
2023-01-08T19:58:03.340Z,9.10
2023-01-08T20:00:36.776Z,9.20
2023-01-08T20:03:04.772Z,9.20
2023-01-08T20:05:32.839Z,9.30
2023-01-08T20:08:02.596Z,9.30
2023-01-08T20:10:34.871Z,9.30
2023-01-08T20:21:27.042Z,9.20
2023-01-08T20:24:01.803Z,9.00
2023-01-08T20:26:34.247Z,8.90
2023-01-08T20:29:10.607Z,9.00
2023-01-08T20:31:41.793Z,8.90
2023-01-08T20:34:15.734Z,8.70
2023-01-08T20:36:52.023Z,8.80
2023-01-08T20:39:20.242Z,8.80
2023-01-08T20:46:57.697Z,8.90
2023-01-08T20:49:26.287Z,8.80
2023-01-08T20:51:59.263Z,8.70
2023-01-08T20:54:28.962Z,8.80
2023-01-08T20:56:58.071Z,8.90
2023-01-08T20:59:26.390Z,8.80
2023-01-08T21:01:54.427Z,8.60
2023-01-08T21:07:13.100Z,8.50
2023-01-08T21:09:41.885Z,8.80
2023-01-08T21:12:10.795Z,9.00
2023-01-08T21:14:39.465Z,8.90
2023-01-08T21:17:06.914Z,8.80
2023-01-08T21:19:39.432Z,9.00
2023-01-08T21:22:07.135Z,9.00
2023-01-08T21:24:35.424Z,9.00
2023-01-08T21:32:03.518Z,9.00
2023-01-08T21:34:38.862Z,9.00
2023-01-08T21:37:08.257Z,9.10
2023-01-08T21:39:36.533Z,9.10
2023-01-08T21:42:22.986Z,9.10
2023-01-08T21:45:10.873Z,9.20
2023-01-08T21:47:39.007Z,9.10
2023-01-08T21:50:08.845Z,9.20
2023-01-08T21:58:26.884Z,8.70
2023-01-08T22:00:57.790Z,8.60
2023-01-08T22:03:29.451Z,8.60
2023-01-08T22:06:02.782Z,8.40
2023-01-08T22:08:31.802Z,8.40
2023-01-08T22:10:59.475Z,8.20
2023-01-08T22:13:28.776Z,8.30
2023-01-08T22:16:02.889Z,8.30
2023-01-08T22:21:25.139Z,8.40
2023-01-08T22:23:53.420Z,8.50
2023-01-08T22:26:21.304Z,8.60
2023-01-08T22:28:49.394Z,8.70
2023-01-08T22:31:17.525Z,8.70
2023-01-08T22:33:45.287Z,8.80
2023-01-08T22:36:14.206Z,8.80
2023-01-08T22:38:43.098Z,8.90
2023-01-08T22:43:58.802Z,8.80
2023-01-08T22:46:26.755Z,8.80
2023-01-08T22:48:54.572Z,8.80
2023-01-08T22:51:27.110Z,8.70
2023-01-08T22:53:55.645Z,8.90
2023-01-08T22:56:23.559Z,8.80
2023-01-08T22:58:50.763Z,8.80
2023-01-08T23:01:22.927Z,8.80
2023-01-08T23:03:51.620Z,8.80
2023-01-08T23:11:25.678Z,8.70
2023-01-08T23:13:55.227Z,8.60
2023-01-08T23:16:24.950Z,8.60
2023-01-08T23:18:56.581Z,8.70
2023-01-08T23:21:25.485Z,8.50
2023-01-08T23:23:53.310Z,8.50
2023-01-08T23:26:25.991Z,8.60
2023-01-08T23:28:55.625Z,8.60
2023-01-08T23:37:13.356Z,8.70
2023-01-08T23:39:44.534Z,8.50
2023-01-08T23:42:22.728Z,8.60
2023-01-08T23:45:03.835Z,8.40
2023-01-08T23:47:33.058Z,8.40
2023-01-08T23:50:07.187Z,8.50
2023-01-08T23:53:01.663Z,8.50
2023-01-08T23:55:48.494Z,8.40
2023-01-08T23:58:19.612Z,8.30
